Time;durP1;ratioP1;P1;durP2;ratioP2;P2;SDS_P1;SDS_P2;PMS_P1;PMS_P2;Temp;Humidity;BMP_temperature;BMP_pressure;BME280_temperature;BME280_humidity;BME280_pressure;Samples;Min_cycle;Max_cycle;Signal;HPM_P1;HPM_P2
2022/04/20 00:02:07;;;;;;;16.88;8.50;;;;;;;8.99;53.25;101455.69;5054256;28;20060;-55
2022/04/20 00:04:33;;;;;;;16.77;8.88;;;;;;;8.99;53.12;101452.91;5054069;28;20021;-53
2022/04/20 00:06:58;;;;;;;15.43;8.65;;;;;;;9.00;53.14;101451.81;5054503;28;20099;-53
2022/04/20 00:09:23;;;;;;;17.08;8.80;;;;;;;8.99;53.37;101452.91;5054156;28;20025;-52
2022/04/20 00:11:48;;;;;;;16.33;8.50;;;;;;;8.93;53.19;101441.06;5053751;28;20025;-49
2022/04/20 00:14:14;;;;;;;18.52;8.90;;;;;;;8.94;53.19;101442.72;5054701;28;20461;-52
2022/04/20 00:16:39;;;;;;;16.73;8.73;;;;;;;8.93;53.19;101443.81;5053869;28;20064;-49
2022/04/20 00:19:04;;;;;;;18.30;8.93;;;;;;;8.87;53.22;101440.28;5053872;28;20075;-52
2022/04/20 00:21:29;;;;;;;15.57;8.98;;;;;;;8.90;53.50;101445.22;5054154;28;20032;-53
2022/04/20 00:23:55;;;;;;;16.90;8.77;;;;;;;8.87;53.32;101444.97;5053714;28;20078;-51
2022/04/20 00:26:20;;;;;;;17.40;9.20;;;;;;;8.84;53.51;101448.25;5053687;28;20060;-50
2022/04/20 00:28:45;;;;;;;16.75;8.90;;;;;;;8.79;54.16;101440.00;5053666;28;20466;-52
2022/04/20 00:31:11;;;;;;;16.48;9.23;;;;;;;8.73;54.04;101444.72;5053717;28;20104;-52
2022/04/20 00:33:37;;;;;;;16.92;8.93;;;;;;;8.71;53.94;101445.00;5053811;28;20112;-55
2022/04/20 00:36:03;;;;;;;16.88;8.90;;;;;;;8.68;54.70;101444.72;5053432;28;20493;-50
2022/04/20 00:38:28;;;;;;;16.40;8.63;;;;;;;8.64;54.43;101443.63;5053219;28;20163;-53
2022/04/20 00:40:55;;;;;;;18.23;9.00;;;;;;;8.61;54.51;101455.19;5053658;28;20035;-53
2022/04/20 00:43:21;;;;;;;16.52;8.70;;;;;;;8.57;54.51;101453.03;5053379;28;20036;-56
2022/04/20 00:45:49;;;;;;;16.10;8.98;;;;;;;8.56;54.55;101450.53;5052764;28;20025;-54
2022/04/20 00:48:15;;;;;;;16.55;8.70;;;;;;;8.53;55.25;101462.94;5052503;28;20192;-56
2022/04/20 00:50:42;;;;;;;17.08;8.88;;;;;;;8.36;55.19;101440.31;5052988;28;20449;-56
2022/04/20 00:53:08;;;;;;;19.00;9.05;;;;;;;8.45;54.93;101459.91;5052626;28;20021;-53
2022/04/20 00:55:33;;;;;;;16.92;8.90;;;;;;;8.43;55.14;101457.41;5052895;28;20033;-53
2022/04/20 00:57:59;;;;;;;17.23;9.00;;;;;;;8.36;55.50;101459.63;5052268;28;20543;-55
2022/04/20 01:00:27;;;;;;;17.33;9.07;;;;;;;8.31;55.23;101454.94;5052573;28;20079;-53
2022/04/20 01:02:52;;;;;;;16.92;8.85;;;;;;;8.30;55.37;101461.53;5052407;28;20021;-50
2022/04/20 01:05:19;;;;;;;17.83;9.15;;;;;;;8.24;55.44;101452.44;5052177;28;20036;-54
2022/04/20 01:07:44;;;;;;;18.25;9.18;;;;;;;8.21;55.53;101455.78;5052140;28;20074;-55
2022/04/20 01:10:09;;;;;;;18.52;9.00;;;;;;;8.17;55.85;101453.84;5034611;28;20119;-54
2022/04/20 01:12:35;;;;;;;16.70;8.60;;;;;;;8.12;55.62;101460.19;5052519;28;20037;-53
2022/04/20 01:15:00;;;;;;;16.63;9.07;;;;;;;8.07;56.01;101458.25;5051674;28;20448;-53
2022/04/20 01:17:25;;;;;;;17.73;9.25;;;;;;;8.07;55.82;101465.66;5051153;28;20021;-51
2022/04/20 01:19:51;;;;;;;17.00;9.30;;;;;;;8.02;55.62;101463.72;5051868;28;20092;-53
2022/04/20 01:22:17;;;;;;;19.15;9.32;;;;;;;7.98;55.70;101457.13;5033595;28;20043;-54
2022/04/20 01:24:42;;;;;;;17.80;8.60;;;;;;;7.96;55.32;101454.63;5051989;28;20203;-51
2022/04/20 01:27:08;;;;;;;17.52;8.90;;;;;;;7.91;55.93;101457.38;5051896;28;20507;-56
2022/04/20 01:29:33;;;;;;;16.40;8.50;;;;;;;7.89;55.48;101458.75;5052147;28;20039;-51
2022/04/20 01:31:59;;;;;;;16.30;8.60;;;;;;;7.84;55.76;101458.75;5052074;28;20075;-54
2022/04/20 01:34:24;;;;;;;18.10;8.48;;;;;;;7.81;55.57;101457.38;5051737;28;20477;-52
2022/04/20 01:36:50;;;;;;;18.02;8.30;;;;;;;7.80;55.92;101464.78;5051585;28;20024;-53
2022/04/20 01:39:16;;;;;;;16.50;7.70;;;;;;;7.80;55.46;101466.72;5051490;28;20477;-49
2022/04/20 01:41:42;;;;;;;17.58;8.18;;;;;;;7.77;55.64;101465.34;5051156;28;20047;-51
2022/04/20 01:44:07;;;;;;;17.02;7.78;;;;;;;7.73;55.79;101466.16;5051451;28;20623;-52
2022/04/20 01:46:33;;;;;;;16.55;7.75;;;;;;;7.72;55.55;101465.31;5033956;28;20037;-53
2022/04/20 01:48:59;;;;;;;16.20;8.30;;;;;;;7.70;55.61;101474.97;5052183;28;20029;-53
2022/04/20 01:54:09;;;;;;;18.17;8.48;;;;;;;7.60;55.66;101462.81;5052383;28;20048;-53
2022/04/20 01:56:35;;;;;;;19.02;8.30;;;;;;;7.59;55.93;101469.41;5051352;28;20025;-53
2022/04/20 01:59:00;;;;;;;18.10;8.93;;;;;;;7.56;55.29;101469.13;5051228;28;20033;-52
2022/04/20 02:04:09;;;;;;;17.17;8.02;;;;;;;7.52;55.63;101471.59;5052496;28;20091;-54
2022/04/20 02:06:35;;;;;;;17.73;8.13;;;;;;;7.49;55.63;101466.63;5051960;28;20025;-54
2022/04/20 02:09:00;;;;;;;16.73;8.52;;;;;;;7.44;55.75;101472.94;5051020;28;20444;-52
2022/04/20 02:11:25;;;;;;;16.67;8.20;;;;;;;7.42;55.29;101468.81;5050544;28;20496;-52
2022/04/20 02:13:51;;;;;;;15.10;7.88;;;;;;;7.39;55.61;101472.94;5050581;28;20040;-54
2022/04/20 02:16:16;;;;;;;18.10;8.60;;;;;;;7.34;55.71;101470.16;5051100;28;20432;-54
2022/04/20 02:18:41;;;;;;;18.27;8.27;;;;;;;7.26;55.96;101460.50;5050005;28;20033;-51
2022/04/20 02:21:07;;;;;;;17.13;8.30;;;;;;;7.28;55.69;101469.28;5051310;28;20017;-56
2022/04/20 02:23:32;;;;;;;16.90;8.10;;;;;;;7.28;55.85;101465.72;5051199;28;20091;-53
2022/04/20 02:25:57;;;;;;;18.33;8.60;;;;;;;7.26;56.27;101462.41;5099596;22;20062;-54
2022/04/20 02:28:23;;;;;;;18.00;8.40;;;;;;;7.23;55.79;101476.69;5133529;27;20035;-54
2022/04/20 02:30:48;;;;;;;17.40;8.50;;;;;;;7.18;56.43;101463.75;5133586;27;20031;-55
2022/04/20 02:33:13;;;;;;;16.75;8.32;;;;;;;7.15;55.95;101467.06;5133436;27;20046;-54
2022/04/20 02:35:40;;;;;;;17.70;8.25;;;;;;;7.12;56.22;101467.56;5133448;27;20034;-55
2022/04/20 02:38:09;;;;;;;17.17;8.35;;;;;;;7.06;56.21;101463.97;5133013;27;20019;-55
2022/04/20 02:40:35;;;;;;;16.95;8.18;;;;;;;7.07;55.95;101482.13;5132917;27;20083;-54
2022/04/20 02:43:00;;;;;;;15.13;8.10;;;;;;;7.05;55.86;101475.25;5133111;27;20020;-56
2022/04/20 02:45:25;;;;;;;16.88;7.85;;;;;;;7.02;55.96;101477.44;5133598;27;20076;-58
2022/04/20 02:47:50;;;;;;;16.92;8.40;;;;;;;7.04;56.09;101477.16;5133129;27;20023;-58
2022/04/20 02:50:16;;;;;;;17.35;8.20;;;;;;;7.01;56.18;101470.28;5133514;28;20027;-58
2022/04/20 02:52:41;;;;;;;16.33;8.13;;;;;;;6.96;56.55;101470.25;5133301;28;20027;-56
2022/04/20 02:55:07;;;;;;;16.77;7.78;;;;;;;6.96;56.46;101466.66;5132814;28;20027;-58
2022/04/20 02:57:32;;;;;;;15.95;7.97;;;;;;;6.93;56.25;101472.72;5132657;28;20023;-57
2022/04/20 02:59:58;;;;;;;18.05;8.60;;;;;;;6.92;56.68;101476.56;5132994;28;20379;-60
2022/04/20 03:02:23;;;;;;;15.68;8.27;;;;;;;6.91;56.69;101480.41;5132767;28;20497;-57
2022/04/20 03:04:48;;;;;;;16.33;8.30;;;;;;;6.87;56.24;101480.09;5131798;28;20015;-57
2022/04/20 03:07:14;;;;;;;17.75;8.35;;;;;;;6.86;56.31;101483.94;5132554;28;20030;-58
2022/04/20 03:09:39;;;;;;;17.35;8.40;;;;;;;6.85;57.11;101482.28;5132684;28;20035;-57
2022/04/20 03:12:05;;;;;;;17.08;7.82;;;;;;;6.81;56.81;101473.75;5132314;28;20034;-58
2022/04/20 03:14:30;;;;;;;17.23;8.13;;;;;;;6.82;56.74;101489.16;5131935;28;20114;-58
2022/04/20 03:16:55;;;;;;;18.17;8.18;;;;;;;6.80;57.00;101488.59;5113403;28;20066;-57
2022/04/20 03:19:20;;;;;;;16.90;7.95;;;;;;;6.78;56.56;101487.19;5131938;28;20421;-55
2022/04/20 03:21:46;;;;;;;14.32;7.60;;;;;;;6.74;57.13;101486.06;5132247;28;20016;-56
2022/04/20 03:24:11;;;;;;;15.85;7.70;;;;;;;6.74;57.28;101486.06;5132078;28;20102;-56
2022/04/20 03:26:36;;;;;;;18.27;7.88;;;;;;;6.70;56.83;101489.34;5132170;28;20047;-56
2022/04/20 03:29:01;;;;;;;17.00;7.60;;;;;;;6.69;57.18;101489.59;5132910;28;20438;-56
2022/04/20 03:31:27;;;;;;;16.50;8.10;;;;;;;6.65;57.08;101492.06;5134420;27;20027;-56
2022/04/20 03:33:52;;;;;;;19.00;8.00;;;;;;;6.65;57.37;101491.25;5136540;27;20031;-57
2022/04/20 03:36:18;;;;;;;17.48;7.97;;;;;;;6.61;57.36;101501.94;5136012;27;20038;-56
2022/04/20 03:38:43;;;;;;;18.95;8.55;;;;;;;6.59;57.54;101495.03;5136193;27;20436;-58
2022/04/20 03:41:09;;;;;;;17.15;9.02;;;;;;;6.57;57.44;101495.28;5136270;27;20023;-56
2022/04/20 03:43:34;;;;;;;18.17;8.65;;;;;;;6.53;57.68;101508.75;5135900;27;20023;-55
2022/04/20 03:45:59;;;;;;;17.50;8.85;;;;;;;6.51;57.63;101499.91;5117776;27;20083;-57
2022/04/20 03:48:26;;;;;;;18.48;8.68;;;;;;;6.48;57.94;101507.88;5136167;27;20463;-56
2022/04/20 03:50:51;;;;;;;19.13;9.13;;;;;;;6.46;57.49;101507.28;5136422;27;20030;-58
2022/04/20 03:53:18;;;;;;;18.73;8.55;;;;;;;6.43;57.92;101505.91;5135904;27;20031;-61
2022/04/20 03:55:44;;;;;;;17.83;8.57;;;;;;;6.39;57.61;101496.50;5136256;27;20023;-56
2022/04/20 03:58:09;;;;;;;17.02;8.55;;;;;;;6.36;58.13;101500.63;5135736;27;20033;-57
2022/04/20 04:00:34;;;;;;;17.48;7.90;;;;;;;6.36;58.00;101503.38;5136421;27;20028;-57
2022/04/20 04:02:59;;;;;;;17.15;8.43;;;;;;;6.38;57.75;101503.09;5136206;27;20030;-57
2022/04/20 04:05:25;;;;;;;18.17;8.30;;;;;;;6.35;58.26;101500.88;5135427;27;20031;-55
2022/04/20 04:07:50;;;;;;;16.83;7.97;;;;;;;6.34;58.22;101504.72;5117943;27;20027;-57
2022/04/20 04:10:16;;;;;;;15.85;7.82;;;;;;;6.32;58.13;101505.00;5135844;27;20072;-56
2022/04/20 04:12:41;;;;;;;17.60;7.90;;;;;;;6.30;58.50;101511.81;5136492;27;20102;-57
2022/04/20 04:15:07;;;;;;;16.75;8.13;;;;;;;6.27;58.84;101506.88;5136347;27;20034;-57
2022/04/20 04:17:33;;;;;;;18.38;8.07;;;;;;;6.23;58.42;101514.81;5136621;27;20451;-56
2022/04/20 04:19:59;;;;;;;18.98;8.18;;;;;;;6.20;59.21;101526.31;5117897;27;20084;-57
2022/04/20 04:22:24;;;;;;;19.10;8.70;;;;;;;6.15;58.93;101507.84;5135970;27;20023;-57
2022/04/20 04:24:49;;;;;;;17.25;8.10;;;;;;;6.16;58.55;101515.00;5135845;27;20034;-57
2022/04/20 04:27:15;;;;;;;20.17;8.25;;;;;;;6.14;58.65;101514.44;5135678;27;20051;-57
2022/04/20 04:29:41;;;;;;;18.05;8.20;;;;;;;6.12;58.70;101519.34;5136089;27;20110;-57
2022/04/20 04:32:06;;;;;;;17.85;8.18;;;;;;;6.10;59.08;101521.53;5117706;27;20412;-57
2022/04/20 04:34:32;;;;;;;18.83;8.63;;;;;;;6.11;58.91;101525.94;5135785;27;20034;-56
2022/04/20 04:36:58;;;;;;;17.38;8.63;;;;;;;6.08;59.48;101530.03;5135800;27;20507;-57
2022/04/20 04:39:28;;;;;;;17.50;8.80;;;;;;;6.06;59.64;101523.97;5117355;27;20023;-56
2022/04/20 04:41:54;;;;;;;17.92;9.23;;;;;;;6.05;59.59;101529.72;5134944;27;20102;-57
2022/04/20 04:44:20;;;;;;;17.50;8.65;;;;;;;6.05;59.94;101530.53;5135703;27;20591;-56
2022/04/20 04:49:30;;;;;;;19.00;8.98;;;;;;;6.02;59.56;101535.72;5135742;27;20115;-56
2022/04/20 04:51:56;;;;;;;18.95;9.07;;;;;;;6.02;59.77;101535.72;5135541;27;20023;-57
2022/04/20 04:54:22;;;;;;;22.10;9.20;;;;;;;6.03;59.79;101542.88;5135300;27;20023;-57
2022/04/20 04:56:48;;;;;;;20.65;9.20;;;;;;;6.04;60.19;101550.03;5135380;27;20027;-56
2022/04/20 04:59:13;;;;;;;19.92;9.32;;;;;;;6.06;60.07;101554.19;5135397;27;20340;-56
2022/04/20 05:01:38;;;;;;;20.42;8.98;;;;;;;6.06;59.78;101556.09;5135722;27;20039;-57
2022/04/20 05:04:05;;;;;;;19.25;9.15;;;;;;;6.08;59.95;101556.69;5135316;27;20495;-57
2022/04/20 05:06:30;;;;;;;18.23;8.57;;;;;;;6.08;59.73;101552.00;5135274;27;20544;-57
2022/04/20 05:08:55;;;;;;;19.65;8.98;;;;;;;6.12;60.04;101562.50;5135224;27;20035;-55
2022/04/20 05:11:20;;;;;;;17.67;8.50;;;;;;;6.13;59.28;101555.91;5134938;27;20029;-57
2022/04/20 05:13:46;;;;;;;17.38;8.35;;;;;;;6.20;58.89;101557.34;5135392;27;20035;-58
2022/04/20 05:16:12;;;;;;;18.30;8.65;;;;;;;6.22;59.10;101563.41;5135113;27;20046;-58
2022/04/20 05:18:37;;;;;;;16.73;8.23;;;;;;;6.26;59.21;101560.16;5134935;27;20059;-59
2022/04/20 05:21:03;;;;;;;19.13;8.70;;;;;;;6.29;59.03;101560.47;5133700;27;20048;-58
2022/04/20 05:23:28;;;;;;;18.67;8.82;;;;;;;6.32;59.31;101570.94;5134729;27;20028;-57
2022/04/20 05:25:53;;;;;;;18.40;8.57;;;;;;;6.34;59.43;101567.94;5134652;27;20055;-58
2022/04/20 05:28:19;;;;;;;18.60;8.73;;;;;;;6.40;59.56;101580.63;5134588;27;20027;-57
2022/04/20 05:30:44;;;;;;;18.30;8.70;;;;;;;6.45;59.13;101580.69;5135010;27;20022;-58
2022/04/20 05:33:09;;;;;;;17.67;8.70;;;;;;;6.49;58.73;101573.56;5134069;27;20038;-58
2022/04/20 05:35:35;;;;;;;18.83;9.10;;;;;;;6.53;58.83;101573.88;5134526;27;20073;-57
2022/04/20 05:43:28;;;;;;;;;;;;;;;6.69;58.04;101564.69;5135118;27;20057;-57
2022/04/20 05:45:53;;;;;;;20.15;9.20;;;;;;;6.72;58.58;101566.91;5133965;27;20002;-58
2022/04/20 05:48:19;;;;;;;20.80;9.30;;;;;;;6.80;58.67;101571.09;5133697;27;20031;-56
2022/04/20 05:50:44;;;;;;;17.52;8.52;;;;;;;6.86;58.80;101563.72;5134389;27;20364;-60
2022/04/20 05:53:09;;;;;;;19.63;9.00;;;;;;;6.91;58.29;101560.97;5133599;27;20156;-57
2022/04/20 05:55:35;;;;;;;18.65;9.20;;;;;;;6.99;57.46;101566.00;5134270;27;20039;-56
2022/04/20 05:58:00;;;;;;;19.15;9.10;;;;;;;7.03;58.17;101555.31;5133581;27;20037;-58
2022/04/20 06:00:26;;;;;;;19.33;9.52;;;;;;;7.13;58.13;101562.78;5134219;27;20467;-59
2022/04/20 06:02:54;;;;;;;18.27;9.18;;;;;;;7.20;58.09;101563.38;5133834;27;20023;-55
2022/04/20 06:05:20;;;;;;;18.48;8.50;;;;;;;7.27;57.41;101568.66;5115385;27;20039;-55
2022/04/20 06:07:46;;;;;;;18.58;8.68;;;;;;;7.32;57.52;101565.94;5134125;27;20027;-56
2022/04/20 06:10:11;;;;;;;19.63;8.63;;;;;;;7.37;57.83;101562.41;5133484;27;20016;-56
2022/04/20 06:12:36;;;;;;;19.45;9.23;;;;;;;7.45;57.14;101556.38;5133987;27;20387;-56
2022/04/20 06:15:02;;;;;;;19.10;10.00;;;;;;;7.51;57.06;101557.25;5133674;27;20031;-56
2022/04/20 06:17:27;;;;;;;19.42;9.57;;;;;;;7.57;57.09;101561.66;5112153;27;20106;-56
2022/04/20 06:19:52;;;;;;;19.45;9.40;;;;;;;7.62;56.87;101558.91;5115546;27;20058;-57
2022/04/20 06:22:18;;;;;;;19.70;9.68;;;;;;;7.70;56.93;101554.84;5133706;27;20088;-57
2022/04/20 06:24:43;;;;;;;17.83;8.88;;;;;;;7.74;56.70;101559.53;5133769;27;20127;-56
2022/04/20 06:27:08;;;;;;;19.17;9.20;;;;;;;7.81;56.78;101560.09;5133167;27;20432;-55
2022/04/20 06:29:35;;;;;;;19.52;8.85;;;;;;;7.86;56.28;101564.81;5133545;27;20119;-57
2022/04/20 06:32:01;;;;;;;18.00;8.88;;;;;;;7.95;56.49;101567.88;5132306;27;20059;-56
2022/04/20 06:34:26;;;;;;;19.85;9.10;;;;;;;8.02;56.12;101567.63;5133749;27;20034;-57
2022/04/20 06:36:51;;;;;;;19.27;9.23;;;;;;;8.11;56.45;101566.00;5133925;27;20019;-56
2022/04/20 06:39:17;;;;;;;18.55;9.50;;;;;;;8.19;56.18;101562.69;5134096;27;20023;-57
2022/04/20 06:41:42;;;;;;;18.55;9.02;;;;;;;8.30;55.79;101571.00;5133701;27;20339;-56
2022/04/20 06:44:07;;;;;;;18.42;9.10;;;;;;;8.38;55.24;101570.47;5132828;27;20058;-57
2022/04/20 06:46:33;;;;;;;18.13;9.13;;;;;;;8.46;54.90;101572.66;5132539;27;20382;-56
2022/04/20 06:48:58;;;;;;;17.83;9.02;;;;;;;8.53;54.97;101570.50;5132946;27;20023;-57
2022/04/20 06:51:24;;;;;;;19.42;9.82;;;;;;;8.63;55.03;101574.34;5133076;28;20027;-56
2022/04/20 06:59:17;;;;;;;17.95;8.93;;;;;;;8.96;54.03;101577.69;5111966;28;20046;-54
2022/04/20 07:01:42;;;;;;;18.38;8.65;;;;;;;9.06;53.00;101572.16;5110844;28;20024;-55
2022/04/20 07:04:07;;;;;;;17.67;8.95;;;;;;;9.15;52.64;101567.72;5108773;28;20031;-55
2022/04/20 07:06:33;;;;;;;19.00;8.80;;;;;;;9.23;52.87;101569.06;5115012;28;20475;-54
2022/04/20 07:08:59;;;;;;;19.13;8.82;;;;;;;9.29;52.80;101576.25;5096838;28;20092;-55
2022/04/20 07:11:25;;;;;;;17.65;9.10;;;;;;;9.38;52.36;101575.69;5115161;28;20024;-55
2022/04/20 07:13:51;;;;;;;17.83;8.52;;;;;;;9.43;52.28;101570.97;5079886;28;20020;-55
2022/04/20 07:16:16;;;;;;;17.98;8.43;;;;;;;9.51;52.10;101578.69;5114902;28;20433;-55
2022/04/20 07:18:42;;;;;;;18.70;8.93;;;;;;;9.60;52.01;101569.81;5115110;28;20042;-55
2022/04/20 07:21:10;;;;;;;16.95;8.57;;;;;;;9.69;51.78;101570.88;5114611;28;20468;-55
2022/04/20 07:23:36;;;;;;;18.40;8.98;;;;;;;9.80;51.91;101578.03;5114779;28;20027;-56
2022/04/20 07:26:02;;;;;;;18.15;8.95;;;;;;;9.90;51.92;101571.59;5114228;28;20054;-55
2022/04/20 07:28:27;;;;;;;17.65;8.57;;;;;;;9.98;51.32;101571.00;5115305;28;20084;-55
2022/04/20 07:30:52;;;;;;;19.13;8.80;;;;;;;10.10;51.36;101572.63;5114784;28;20048;-57
2022/04/20 07:33:18;;;;;;;18.75;9.00;;;;;;;10.22;50.84;101566.72;5114597;28;20027;-55
2022/04/20 07:35:44;;;;;;;19.38;9.40;;;;;;;10.28;50.57;101574.72;5096069;28;20066;-53
2022/04/20 07:38:10;;;;;;;17.58;8.68;;;;;;;10.39;50.30;101578.25;5114409;28;20027;-55
2022/04/20 07:40:35;;;;;;;18.10;8.98;;;;;;;10.48;49.67;101581.25;5114256;28;20032;-55
2022/04/20 07:43:01;;;;;;;17.95;8.57;;;;;;;10.55;50.18;101586.47;5114110;28;20144;-55
2022/04/20 07:45:26;;;;;;;21.10;9.10;;;;;;;10.66;50.12;101584.44;5114117;28;20114;-55
2022/04/20 07:47:56;;;;;;;17.48;8.70;;;;;;;10.67;49.63;101581.41;5114001;28;20035;-55
2022/04/20 07:50:23;;;;;;;17.40;8.90;;;;;;;10.82;48.93;101591.50;5114084;28;20569;-55
2022/04/20 07:52:54;;;;;;;17.98;8.82;;;;;;;10.86;48.75;101598.13;5113903;28;20120;-55
2022/04/20 07:55:28;;;;;;;18.58;8.75;;;;;;;10.86;48.84;101586.25;5113928;28;20047;-54
2022/04/20 07:57:56;;;;;;;17.17;8.43;;;;;;;10.98;48.82;101564.50;5113969;28;20032;-54
2022/04/20 08:00:22;;;;;;;19.27;8.85;;;;;;;11.15;48.40;101590.94;5113996;28;20110;-55
2022/04/20 08:02:48;;;;;;;17.38;8.80;;;;;;;11.20;48.41;101582.59;5111982;28;20502;-55
2022/04/20 08:05:16;;;;;;;17.40;8.13;;;;;;;11.26;47.62;101586.94;5113817;28;20027;-55
2022/04/20 08:07:42;;;;;;;18.23;8.60;;;;;;;11.34;47.74;101588.25;5113807;28;20157;-56
2022/04/20 08:10:09;;;;;;;18.75;8.70;;;;;;;11.43;47.82;101583.72;5113708;28;20068;-55
2022/04/20 08:12:43;;;;;;;17.83;8.85;;;;;;;11.52;48.37;101595.00;5113530;28;20031;-56
2022/04/20 08:15:10;;;;;;;16.73;8.27;;;;;;;11.62;46.94;101586.56;5113604;28;20126;-55
2022/04/20 08:17:36;;;;;;;17.88;9.27;;;;;;;11.67;46.57;101586.50;5112571;28;20065;-56
2022/04/20 08:20:05;;;;;;;17.42;8.80;;;;;;;11.77;47.29;101576.41;5113548;28;20070;-56
2022/04/20 08:22:31;;;;;;;18.13;9.02;;;;;;;11.85;46.30;101586.84;5113543;28;20497;-56
2022/04/20 08:24:56;;;;;;;17.92;9.60;;;;;;;11.92;46.25;101592.84;5113463;28;20031;-56
2022/04/20 08:27:22;;;;;;;16.98;8.40;;;;;;;11.98;45.63;101580.63;5113144;28;20048;-56
2022/04/20 08:29:49;;;;;;;18.98;8.80;;;;;;;12.08;46.12;101587.97;5113273;28;20030;-55
2022/04/20 08:32:16;;;;;;;17.60;9.43;;;;;;;12.17;44.97;101588.94;5094831;28;20031;-55
2022/04/20 08:34:45;;;;;;;18.50;8.70;;;;;;;12.29;45.04;101582.94;5113199;28;20030;-55
2022/04/20 08:37:11;;;;;;;18.63;8.90;;;;;;;12.40;45.86;101589.19;5113688;28;20120;-57
2022/04/20 08:39:39;;;;;;;19.60;9.35;;;;;;;12.48;44.17;101598.75;5113410;28;20031;-56
2022/04/20 08:42:05;;;;;;;17.95;8.50;;;;;;;12.57;45.94;101590.59;5113632;28;20028;-57
2022/04/20 08:44:34;;;;;;;17.13;8.40;;;;;;;12.66;44.25;101596.28;5113128;28;20380;-57
2022/04/20 08:47:02;;;;;;;17.27;8.52;;;;;;;12.79;44.50;101588.03;5112924;28;20023;-55
2022/04/20 08:49:28;;;;;;;16.25;7.93;;;;;;;12.90;44.00;101585.88;5113510;28;20031;-57
2022/04/20 08:54:39;;;;;;;19.50;9.10;;;;;;;13.05;42.30;101586.72;5113183;28;20074;-55
2022/04/20 08:57:16;;;;;;;18.85;9.07;;;;;;;13.09;42.21;101582.22;5096031;27;20106;-55
2022/04/20 08:59:49;;;;;;;19.00;9.23;;;;;;;13.16;41.26;101581.84;5124038;27;20030;-56
2022/04/20 09:02:21;;;;;;;17.45;8.73;;;;;;;13.25;42.03;101588.34;5112586;27;20581;-55
2022/04/20 09:04:47;;;;;;;19.42;8.73;;;;;;;13.27;40.33;101584.13;5133185;27;20015;-56
2022/04/20 09:07:15;;;;;;;19.27;9.32;;;;;;;13.32;40.92;101588.75;5133160;27;20107;-56
2022/04/20 09:09:41;;;;;;;18.45;8.65;;;;;;;13.44;41.11;101576.34;5133200;27;20030;-55
2022/04/20 09:12:14;;;;;;;18.42;8.73;;;;;;;13.53;41.43;101569.75;5132858;27;20030;-55
2022/04/20 09:14:41;;;;;;;19.00;8.70;;;;;;;13.70;41.58;101574.69;5133219;27;20444;-55
2022/04/20 09:17:10;;;;;;;18.85;8.88;;;;;;;13.71;39.31;101561.59;5132971;27;20364;-56
2022/04/20 09:19:36;;;;;;;20.50;8.77;;;;;;;13.76;39.52;101575.41;5132905;27;20102;-57
2022/04/20 09:22:16;;;;;;;18.98;8.68;;;;;;;13.73;39.60;101576.03;5132984;27;20035;-56
2022/04/20 09:24:58;;;;;;;17.52;8.30;;;;;;;13.74;39.38;101577.69;5132816;27;20118;-55
2022/04/20 09:27:25;;;;;;;18.77;8.85;;;;;;;13.75;39.44;101575.72;5132503;27;20047;-55
2022/04/20 09:29:57;;;;;;;17.52;8.20;;;;;;;13.82;40.17;101571.38;5132951;27;20066;-55
2022/04/20 09:32:30;;;;;;;18.83;8.52;;;;;;;14.00;39.44;101569.63;5132779;27;20039;-56
2022/04/20 09:34:59;;;;;;;17.80;7.78;;;;;;;14.13;38.77;101572.66;5132562;27;20407;-55
2022/04/20 09:37:25;;;;;;;15.18;7.88;;;;;;;14.21;38.83;101560.81;5132482;27;20031;-55
2022/04/20 09:39:51;;;;;;;15.45;7.82;;;;;;;14.30;38.40;101556.16;5132528;27;20080;-55
2022/04/20 09:42:18;;;;;;;16.40;7.90;;;;;;;14.43;38.24;101550.81;5132451;27;20090;-57
2022/04/20 09:44:55;;;;;;;17.10;7.70;;;;;;;14.58;37.99;101566.34;5132363;27;20023;-56
2022/04/20 09:50:06;;;;;;;13.45;7.00;;;;;;;14.62;37.27;101548.69;5132417;27;20065;-56
2022/04/20 09:52:42;;;;;;;15.45;7.78;;;;;;;14.60;35.95;101542.59;5132482;27;20031;-56
2022/04/20 09:55:10;;;;;;;14.32;7.20;;;;;;;14.71;37.28;101559.94;5132217;27;20478;-55
2022/04/20 09:57:37;;;;;;;14.18;7.13;;;;;;;14.71;36.88;101548.78;5131744;27;20034;-55
2022/04/20 10:00:11;;;;;;;15.25;7.38;;;;;;;14.76;37.53;101545.84;5113631;27;20038;-56
2022/04/20 10:02:56;;;;;;;14.77;7.18;;;;;;;14.88;36.35;101544.47;5130207;27;20035;-55
2022/04/20 10:05:23;;;;;;;14.77;7.55;;;;;;;14.90;35.52;101554.13;5131380;27;20175;-56
2022/04/20 10:07:48;;;;;;;15.25;7.55;;;;;;;14.91;35.74;101544.66;5132154;27;20030;-56
2022/04/20 10:10:14;;;;;;;15.60;7.72;;;;;;;14.96;36.29;101543.69;5131930;27;20552;-55
2022/04/20 10:12:41;;;;;;;17.10;7.40;;;;;;;14.97;36.97;101534.19;5132261;27;20450;-56
2022/04/20 10:17:57;;;;;;;13.70;6.70;;;;;;;14.86;34.62;101538.38;5131856;27;20099;-56
2022/04/20 10:20:29;;;;;;;13.07;6.50;;;;;;;15.01;35.82;101539.94;5131822;27;20027;-55
2022/04/20 10:22:54;;;;;;;13.50;6.95;;;;;;;15.05;35.08;101530.63;5131771;27;20031;-55
2022/04/20 10:25:20;;;;;;;14.30;6.82;;;;;;;15.21;35.58;101521.88;5112671;27;21201;-55
2022/04/20 10:27:58;;;;;;;13.57;6.80;;;;;;;15.35;36.22;101514.19;5131451;27;20029;-56
2022/04/20 10:30:38;;;;;;;14.30;7.22;;;;;;;15.40;35.73;101507.66;5131696;27;20386;-57
2022/04/20 10:33:13;;;;;;;13.43;7.40;;;;;;;15.48;36.14;101508.84;5131474;27;20042;-56
2022/04/20 10:36:03;;;;;;;15.48;7.88;;;;;;;15.50;36.85;101509.31;5131537;27;20046;-55
2022/04/20 10:38:31;;;;;;;17.27;8.10;;;;;;;15.61;36.41;101510.66;5113398;27;20054;-55
2022/04/20 10:41:03;;;;;;;15.57;7.80;;;;;;;15.73;37.24;101504.44;5131320;27;20028;-57
2022/04/20 10:43:30;;;;;;;16.30;8.23;;;;;;;15.82;36.18;101504.47;5131446;27;20031;-56
2022/04/20 10:46:02;;;;;;;17.33;8.18;;;;;;;15.89;36.83;101507.63;5131394;27;20024;-55
2022/04/20 10:48:44;;;;;;;15.13;7.78;;;;;;;15.92;36.93;101500.59;5112858;27;20387;-56
2022/04/20 10:51:11;;;;;;;17.27;8.25;;;;;;;15.93;36.43;101497.47;5131356;27;20019;-56
2022/04/20 10:53:37;;;;;;;16.23;8.25;;;;;;;15.97;36.66;101500.41;5131224;28;20051;-55
2022/04/20 10:56:02;;;;;;;17.02;8.30;;;;;;;16.01;36.60;101501.41;5131559;28;20110;-55
2022/04/20 10:58:27;;;;;;;18.00;8.75;;;;;;;16.04;36.75;101500.75;5131494;28;20019;-56
2022/04/20 11:01:09;;;;;;;17.05;8.82;;;;;;;16.08;37.56;101493.38;5131335;28;20023;-56
2022/04/20 11:04:06;;;;;;;16.55;8.30;;;;;;;16.17;36.42;101491.41;5129357;28;20031;-55
2022/04/20 11:06:59;;;;;;;15.98;8.55;;;;;;;16.08;36.77;101484.16;5074771;28;20040;-56
2022/04/20 11:09:45;;;;;;;17.33;8.93;;;;;;;15.92;36.37;101483.84;5131402;28;20108;-55
2022/04/20 11:21:03;;;;;;;15.15;7.85;;;;;;;15.81;35.18;101472.13;5128852;28;20096;-55
2022/04/20 11:23:53;;;;;;;19.58;8.32;;;;;;;15.96;35.90;101473.66;5121308;28;20031;-55
2022/04/20 11:26:24;;;;;;;16.30;7.95;;;;;;;15.84;34.72;101465.94;5116064;28;20495;-57
2022/04/20 11:28:51;;;;;;;15.68;7.63;;;;;;;15.89;35.45;101463.81;5112953;28;20027;-57
2022/04/20 11:31:17;;;;;;;15.18;7.75;;;;;;;16.16;35.00;101458.22;5112536;28;20031;-57
2022/04/20 11:33:42;;;;;;;13.60;7.25;;;;;;;16.44;34.96;101458.69;5112692;28;20019;-57
2022/04/20 11:36:12;;;;;;;14.38;7.32;;;;;;;16.59;34.06;101464.88;5112363;28;20055;-55
2022/04/20 11:38:42;;;;;;;14.23;7.65;;;;;;;16.68;34.27;101460.09;5112721;28;20479;-55
2022/04/20 11:41:11;;;;;;;16.13;8.23;;;;;;;16.72;33.45;101460.28;5112549;28;20016;-57
2022/04/20 11:43:40;;;;;;;16.98;7.93;;;;;;;16.81;33.52;101455.47;5111701;28;20023;-55
2022/04/20 11:46:07;;;;;;;13.48;7.38;;;;;;;16.91;33.69;101454.28;5093976;28;20062;-54
2022/04/20 11:48:35;;;;;;;16.20;7.82;;;;;;;16.98;34.13;101440.63;5112156;28;20293;-55
2022/04/20 11:51:01;;;;;;;14.82;7.88;;;;;;;16.88;33.59;101435.38;5112373;28;20038;-55
2022/04/20 11:53:33;;;;;;;16.25;8.00;;;;;;;16.93;33.69;101441.63;5115792;28;20036;-53
2022/04/20 11:55:59;;;;;;;17.13;8.10;;;;;;;16.84;33.81;101441.66;5116113;28;20107;-55
2022/04/20 11:58:24;;;;;;;14.55;7.68;;;;;;;16.89;33.99;101432.25;5116118;28;20058;-55